createdAt,value
2024-02-20T00:02:03.123Z,9.30
2024-02-20T00:04:30.098Z,9.30
2024-02-20T00:06:57.349Z,9.30
2024-02-20T00:09:26.692Z,9.30
2024-02-20T00:11:53.439Z,9.30
2024-02-20T00:14:20.066Z,9.30
2024-02-20T00:16:48.009Z,9.20
2024-02-20T00:19:14.953Z,9.20
2024-02-20T00:21:43.204Z,9.20
2024-02-20T00:24:10.509Z,9.30
2024-02-20T00:26:37.169Z,9.30
2024-02-20T00:29:03.906Z,9.20
2024-02-20T00:31:34.129Z,9.20
2024-02-20T00:34:01.683Z,9.30
2024-02-20T00:36:28.547Z,9.30
2024-02-20T00:38:55.934Z,9.30
2024-02-20T00:41:22.707Z,9.20
2024-02-20T00:43:49.842Z,9.10
2024-02-20T00:46:23.920Z,9.20
2024-02-20T00:48:52.046Z,9.20
2024-02-20T00:51:20.581Z,9.20
2024-02-20T00:53:47.804Z,9.20
2024-02-20T00:56:14.472Z,9.20
2024-02-20T00:58:43.192Z,9.20
2024-02-20T01:01:11.873Z,9.20
2024-02-20T01:03:39.351Z,9.30
2024-02-20T01:06:09.464Z,9.20
2024-02-20T01:08:37.058Z,9.20
2024-02-20T01:11:04.166Z,9.20
2024-02-20T01:13:30.877Z,9.20
2024-02-20T01:15:58.114Z,9.10
2024-02-20T01:18:24.907Z,9.20
2024-02-20T01:20:52.070Z,9.10
2024-02-20T01:23:19.064Z,9.20
2024-02-20T01:25:45.804Z,9.10
2024-02-20T01:28:12.457Z,9.10
2024-02-20T01:30:39.715Z,9.10
2024-02-20T01:33:06.389Z,9.20
2024-02-20T01:35:33.159Z,9.30
2024-02-20T01:38:00.171Z,9.20
2024-02-20T01:40:26.944Z,9.20
2024-02-20T01:43:05.283Z,9.20
2024-02-20T01:45:32.763Z,9.20
2024-02-20T01:48:02.078Z,9.10
2024-02-20T01:50:30.812Z,9.10
2024-02-20T01:52:58.192Z,9.20
2024-02-20T01:55:25.516Z,9.20
2024-02-20T01:57:52.432Z,9.10
2024-02-20T02:00:19.207Z,9.10
2024-02-20T02:02:46.289Z,9.10
2024-02-20T02:05:14.441Z,9.10
2024-02-20T02:07:41.578Z,9.10
2024-02-20T02:10:09.394Z,9.10
2024-02-20T02:12:36.370Z,9.20
2024-02-20T02:15:03.094Z,9.20
2024-02-20T02:17:30.356Z,9.10
2024-02-20T02:19:57.108Z,9.10
2024-02-20T02:22:24.313Z,9.10
2024-02-20T02:24:51.377Z,9.10
2024-02-20T02:27:18.228Z,9.00
2024-02-20T02:29:45.025Z,9.10
2024-02-20T02:32:12.122Z,9.10
2024-02-20T02:34:38.924Z,9.10
2024-02-20T02:37:07.690Z,9.10
2024-02-20T02:39:34.833Z,9.00
2024-02-20T02:42:01.461Z,9.00
2024-02-20T02:44:28.047Z,9.10
2024-02-20T02:46:55.208Z,9.10
2024-02-20T02:49:21.980Z,9.20
2024-02-20T02:51:48.791Z,9.10
2024-02-20T02:54:15.488Z,9.10
2024-02-20T02:56:42.610Z,9.00
2024-02-20T02:59:10.563Z,9.00
2024-02-20T03:01:37.637Z,9.00
2024-02-20T03:04:05.906Z,9.00
2024-02-20T03:06:36.876Z,9.00
2024-02-20T03:09:06.592Z,9.00
2024-02-20T03:11:34.101Z,9.00
2024-02-20T03:14:01.152Z,9.00
2024-02-20T03:16:27.767Z,9.00
2024-02-20T03:18:54.599Z,9.10
2024-02-20T03:21:21.662Z,9.10
2024-02-20T03:23:48.332Z,9.00
2024-02-20T03:26:15.008Z,9.10
2024-02-20T03:28:42.036Z,9.10
2024-02-20T03:31:09.483Z,9.10
2024-02-20T03:33:37.112Z,9.10
2024-02-20T03:36:04.674Z,8.90
2024-02-20T03:38:31.424Z,9.00
2024-02-20T03:40:58.078Z,8.90
2024-02-20T03:43:25.126Z,9.00
2024-02-20T03:45:51.854Z,9.00
2024-02-20T03:48:18.875Z,8.90
2024-02-20T03:50:46.252Z,8.90
2024-02-20T03:53:12.968Z,8.90
2024-02-20T03:55:39.710Z,8.80
2024-02-20T03:58:06.816Z,8.80
2024-02-20T04:00:33.650Z,8.70
2024-02-20T04:03:00.849Z,8.80
2024-02-20T04:05:27.890Z,8.80
2024-02-20T04:07:55.482Z,8.80
2024-02-20T04:10:22.184Z,8.80
2024-02-20T04:12:49.362Z,8.90
2024-02-20T04:15:16.530Z,9.00
2024-02-20T04:17:43.486Z,8.80
2024-02-20T04:20:12.059Z,8.80
2024-02-20T04:22:38.976Z,8.70
2024-02-20T04:25:06.346Z,8.70
2024-02-20T04:27:33.952Z,8.70
2024-02-20T04:30:00.689Z,8.70
2024-02-20T04:32:27.807Z,8.70
2024-02-20T04:34:54.966Z,8.70
2024-02-20T04:37:22.031Z,8.70
2024-02-20T04:39:49.028Z,8.70
2024-02-20T04:42:16.111Z,8.70
2024-02-20T04:44:42.807Z,8.80
2024-02-20T04:47:09.571Z,8.70
2024-02-20T04:49:36.344Z,8.80
2024-02-20T04:52:03.170Z,8.90
2024-02-20T04:54:29.857Z,8.80
2024-02-20T04:56:57.139Z,8.70
2024-02-20T04:59:24.250Z,8.70
2024-02-20T05:01:51.374Z,8.70
2024-02-20T05:04:18.519Z,8.60
2024-02-20T05:06:46.286Z,8.60
2024-02-20T05:09:15.029Z,8.50
2024-02-20T05:11:42.502Z,8.50
2024-02-20T05:14:09.292Z,8.50
2024-02-20T05:16:36.035Z,8.50
2024-02-20T05:19:03.283Z,8.50
2024-02-20T05:21:30.041Z,8.40
2024-02-20T05:23:56.694Z,8.40
2024-02-20T05:26:23.800Z,8.30
2024-02-20T05:28:50.900Z,8.30
2024-02-20T05:31:29.016Z,8.30
2024-02-20T05:34:00.377Z,8.30
2024-02-20T05:36:31.064Z,8.20
2024-02-20T05:39:02.701Z,8.30
2024-02-20T05:41:30.030Z,8.30
2024-02-20T05:44:01.393Z,8.30
2024-02-20T05:46:28.843Z,8.20
2024-02-20T05:48:56.213Z,8.20
2024-02-20T05:51:24.935Z,8.20
2024-02-20T05:53:52.289Z,8.20
2024-02-20T05:56:19.848Z,8.20
2024-02-20T05:58:46.887Z,8.00
2024-02-20T06:01:14.423Z,8.00
2024-02-20T06:03:41.888Z,8.10
2024-02-20T06:06:09.215Z,8.00
2024-02-20T06:08:36.686Z,8.10
2024-02-20T06:11:03.475Z,8.10
2024-02-20T06:13:30.600Z,8.10
2024-02-20T06:15:57.311Z,8.20
2024-02-20T06:18:24.062Z,8.10
2024-02-20T06:20:51.613Z,8.10
2024-02-20T06:23:18.223Z,8.10
2024-02-20T06:25:45.618Z,8.10
2024-02-20T06:28:15.900Z,8.10
2024-02-20T06:30:43.606Z,8.20
2024-02-20T06:33:10.344Z,8.20
2024-02-20T06:35:37.480Z,8.20
2024-02-20T06:38:04.175Z,8.20
2024-02-20T06:40:30.887Z,8.20
2024-02-20T06:42:58.038Z,8.20
2024-02-20T06:45:24.990Z,8.30
2024-02-20T06:47:51.684Z,8.20
2024-02-20T06:50:18.569Z,8.20
2024-02-20T06:52:45.287Z,8.20
2024-02-20T06:55:12.259Z,8.10
2024-02-20T06:57:41.237Z,8.10
2024-02-20T07:00:16.386Z,8.10
2024-02-20T07:02:43.776Z,8.00
2024-02-20T07:05:11.988Z,8.00
2024-02-20T07:07:39.172Z,8.10
2024-02-20T07:10:08.107Z,8.10
2024-02-20T07:12:35.329Z,8.20
2024-02-20T07:15:02.535Z,8.10
2024-02-20T07:17:29.765Z,8.20
2024-02-20T07:19:59.500Z,8.20
2024-02-20T07:22:27.944Z,8.20
2024-02-20T07:24:54.667Z,8.20
2024-02-20T07:27:21.343Z,8.30
2024-02-20T07:29:49.339Z,8.40
2024-02-20T07:32:16.707Z,8.30
2024-02-20T07:34:45.902Z,8.30
2024-02-20T07:37:13.463Z,8.40
2024-02-20T07:39:41.000Z,8.30
2024-02-20T07:42:10.589Z,8.40
2024-02-20T07:44:37.938Z,8.40
2024-02-20T07:47:04.848Z,8.30
2024-02-20T07:49:31.771Z,8.30
2024-02-20T07:51:58.969Z,8.30
2024-02-20T07:54:25.806Z,8.30
2024-02-20T07:56:52.464Z,8.40
2024-02-20T07:59:19.258Z,8.40
2024-02-20T08:01:50.302Z,8.50
2024-02-20T08:04:18.469Z,8.60
2024-02-20T08:06:45.591Z,8.60
2024-02-20T08:09:12.818Z,8.70
2024-02-20T08:11:39.540Z,8.70
2024-02-20T08:14:06.485Z,8.70
2024-02-20T08:16:34.258Z,8.70
2024-02-20T08:19:02.217Z,8.70
2024-02-20T08:21:28.982Z,8.70
2024-02-20T08:23:56.027Z,8.60
2024-02-20T08:26:25.263Z,8.60
2024-02-20T08:28:55.116Z,8.60
2024-02-20T08:31:22.012Z,8.60
2024-02-20T08:33:50.744Z,8.70
2024-02-20T08:36:20.390Z,8.80
2024-02-20T08:38:47.976Z,8.70
2024-02-20T08:41:14.806Z,8.60
2024-02-20T08:43:43.152Z,8.60
2024-02-20T08:46:10.261Z,8.60
2024-02-20T08:48:37.046Z,8.60
2024-02-20T08:51:03.899Z,8.70
2024-02-20T08:53:31.093Z,9.00
2024-02-20T08:55:57.815Z,8.90
2024-02-20T08:58:25.033Z,8.90
2024-02-20T09:00:52.327Z,8.90
2024-02-20T09:03:19.037Z,8.80
2024-02-20T09:05:46.331Z,8.50
2024-02-20T09:08:15.909Z,8.40
2024-02-20T09:10:42.636Z,8.40
2024-02-20T09:13:09.437Z,8.40
2024-02-20T09:15:37.307Z,8.50
2024-02-20T09:18:04.784Z,8.70
2024-02-20T09:20:31.798Z,8.50
2024-02-20T09:22:59.493Z,8.50
2024-02-20T09:25:26.216Z,8.60
2024-02-20T09:27:52.872Z,8.50
2024-02-20T09:30:19.937Z,8.50
2024-02-20T09:32:46.687Z,8.50
2024-02-20T09:35:15.604Z,8.50
2024-02-20T09:37:43.216Z,8.60
2024-02-20T09:40:10.290Z,8.60
2024-02-20T09:42:43.125Z,8.60
2024-02-20T09:45:16.338Z,8.70
2024-02-20T09:47:43.727Z,8.60
2024-02-20T09:50:11.485Z,8.60
2024-02-20T09:52:39.953Z,8.60
2024-02-20T09:55:09.050Z,8.60
2024-02-20T09:57:37.063Z,8.80
2024-02-20T10:00:04.091Z,9.00
2024-02-20T10:02:31.233Z,9.00
2024-02-20T10:04:59.766Z,9.10
2024-02-20T10:07:27.115Z,9.00
2024-02-20T10:09:53.912Z,8.90
2024-02-20T10:12:22.012Z,8.80
2024-02-20T10:14:49.501Z,8.90
2024-02-20T10:17:16.971Z,8.90
2024-02-20T10:19:46.984Z,8.90
2024-02-20T10:22:26.230Z,8.80
2024-02-20T10:25:02.576Z,8.90
2024-02-20T10:27:29.942Z,8.90
2024-02-20T10:29:56.554Z,9.00
2024-02-20T10:32:23.442Z,9.20
2024-02-20T10:35:00.680Z,9.10
2024-02-20T10:37:29.145Z,9.20
2024-02-20T10:40:17.999Z,9.20
2024-02-20T10:42:54.401Z,9.20
2024-02-20T10:45:25.482Z,9.30
2024-02-20T10:47:53.914Z,9.30
2024-02-20T10:50:21.172Z,9.30
2024-02-20T10:52:48.515Z,9.20
2024-02-20T10:55:26.934Z,9.20
2024-02-20T10:58:04.411Z,9.10
2024-02-20T11:00:33.635Z,9.20
2024-02-20T11:03:00.937Z,9.30
2024-02-20T11:05:31.634Z,9.40
2024-02-20T11:08:12.630Z,9.40
2024-02-20T11:10:41.134Z,9.50
2024-02-20T11:13:15.297Z,9.50
2024-02-20T11:15:42.303Z,9.30
2024-02-20T11:18:17.171Z,9.40
2024-02-20T11:20:45.417Z,9.60
2024-02-20T11:23:12.368Z,9.50
2024-02-20T11:25:40.149Z,9.60
2024-02-20T11:28:16.849Z,9.60
2024-02-20T11:30:46.457Z,9.50
2024-02-20T11:33:18.308Z,9.50
2024-02-20T11:35:47.036Z,9.50
2024-02-20T11:38:18.270Z,9.50
2024-02-20T11:40:45.335Z,9.40
2024-02-20T11:43:12.450Z,9.40
2024-02-20T11:45:39.597Z,9.30
2024-02-20T11:48:10.784Z,9.30
2024-02-20T11:50:42.019Z,9.40
2024-02-20T11:53:13.139Z,9.30
2024-02-20T11:55:43.318Z,9.30
2024-02-20T11:58:15.202Z,9.30
2024-02-20T12:00:45.995Z,9.40
2024-02-20T12:03:13.207Z,9.40
2024-02-20T12:05:43.207Z,9.40
2024-02-20T12:08:18.354Z,9.50
2024-02-20T12:10:45.945Z,9.40
2024-02-20T12:13:16.944Z,9.30
2024-02-20T12:15:45.547Z,9.30
2024-02-20T12:18:22.860Z,9.50
2024-02-20T12:20:50.089Z,9.50
2024-02-20T12:23:20.949Z,9.40
2024-02-20T12:25:47.855Z,9.50
2024-02-20T12:28:15.571Z,9.40
2024-02-20T12:30:42.461Z,9.40
2024-02-20T12:33:09.274Z,9.30
2024-02-20T12:35:39.376Z,9.30
2024-02-20T12:38:06.304Z,9.30
2024-02-20T12:40:33.610Z,9.30
2024-02-20T12:43:00.719Z,9.30
2024-02-20T12:45:29.910Z,9.30
2024-02-20T12:47:56.710Z,9.30
2024-02-20T12:50:23.894Z,9.30
2024-02-20T12:52:50.574Z,9.30
2024-02-20T12:55:17.241Z,9.40
2024-02-20T12:57:44.399Z,9.30
2024-02-20T13:00:11.413Z,9.30
2024-02-20T13:02:38.071Z,9.50
2024-02-20T13:05:05.405Z,9.60
2024-02-20T13:07:32.551Z,9.60
2024-02-20T13:09:59.266Z,9.60
2024-02-20T13:12:30.074Z,9.70
2024-02-20T13:14:56.911Z,9.70
2024-02-20T13:17:23.623Z,9.70
2024-02-20T13:19:52.532Z,9.80
2024-02-20T13:22:19.248Z,9.80
2024-02-20T13:24:47.291Z,9.80
2024-02-20T13:27:18.796Z,9.80
2024-02-20T13:29:45.642Z,9.80
2024-02-20T13:32:13.886Z,9.80
2024-02-20T13:34:41.011Z,9.80
2024-02-20T13:37:08.117Z,9.80
2024-02-20T13:39:35.062Z,9.80
2024-02-20T13:42:02.049Z,9.80
2024-02-20T13:44:29.411Z,9.90
2024-02-20T13:47:03.342Z,9.80
2024-02-20T13:49:35.299Z,9.80
2024-02-20T13:52:02.453Z,9.90
2024-02-20T13:54:30.865Z,9.90
2024-02-20T13:56:57.910Z,9.80
2024-02-20T13:59:24.531Z,9.80
2024-02-20T14:01:51.252Z,9.70
2024-02-20T14:04:18.041Z,9.80
2024-02-20T14:06:44.816Z,9.80
2024-02-20T14:09:13.256Z,9.80
2024-02-20T14:11:40.215Z,9.80
2024-02-20T14:14:06.916Z,9.70
2024-02-20T14:16:33.778Z,9.70
2024-02-20T14:19:00.467Z,9.80
2024-02-20T14:21:27.951Z,9.80
2024-02-20T14:23:55.034Z,9.70
2024-02-20T14:26:24.744Z,9.60
2024-02-20T14:28:52.506Z,9.70
2024-02-20T14:31:19.718Z,9.70
2024-02-20T14:33:46.934Z,9.80
2024-02-20T14:36:13.699Z,9.80
2024-02-20T14:38:40.985Z,9.80
2024-02-20T14:41:07.753Z,9.80
2024-02-20T14:43:34.538Z,9.80
2024-02-20T14:46:03.772Z,9.70
2024-02-20T14:48:32.664Z,9.70
2024-02-20T14:50:59.890Z,9.70
2024-02-20T14:53:26.948Z,9.70
2024-02-20T14:55:53.716Z,9.60
2024-02-20T14:58:20.492Z,9.60
2024-02-20T15:00:47.934Z,9.60
2024-02-20T15:03:16.870Z,9.50
2024-02-20T15:05:44.307Z,9.40
2024-02-20T15:08:11.241Z,9.50
2024-02-20T15:10:38.398Z,9.60
2024-02-20T15:13:05.214Z,9.60
2024-02-20T15:15:32.207Z,9.70
2024-02-20T15:17:58.845Z,9.60
2024-02-20T15:20:25.732Z,9.60
2024-02-20T15:22:52.937Z,9.60
2024-02-20T15:25:19.772Z,9.60
2024-02-20T15:27:48.456Z,9.60
2024-02-20T15:30:17.042Z,9.60
2024-02-20T15:32:45.072Z,9.70
2024-02-20T15:35:12.257Z,9.70
2024-02-20T15:37:39.327Z,9.70
2024-02-20T15:40:07.428Z,9.70
2024-02-20T15:42:34.386Z,9.60
2024-02-20T15:45:01.494Z,9.60
2024-02-20T15:47:28.496Z,9.60
2024-02-20T15:49:55.225Z,9.60
2024-02-20T15:52:24.150Z,9.60
2024-02-20T15:54:52.778Z,9.50
2024-02-20T15:57:19.551Z,9.40
2024-02-20T15:59:46.580Z,9.40
2024-02-20T16:02:13.696Z,9.40
2024-02-20T16:04:40.421Z,9.50
2024-02-20T16:07:07.208Z,9.50
2024-02-20T16:09:33.951Z,9.60
2024-02-20T16:12:01.104Z,9.50
2024-02-20T16:14:28.281Z,9.50
2024-02-20T16:16:55.054Z,9.30
2024-02-20T16:19:21.941Z,9.40
2024-02-20T16:21:49.182Z,9.30
2024-02-20T16:24:17.134Z,9.30
2024-02-20T16:26:45.737Z,9.40
2024-02-20T16:29:12.781Z,9.40
2024-02-20T16:31:39.530Z,9.40
2024-02-20T16:34:06.835Z,9.40
2024-02-20T16:36:34.178Z,9.40
2024-02-20T16:39:01.319Z,9.50
2024-02-20T16:41:28.033Z,9.50
2024-02-20T16:43:55.211Z,9.50
2024-02-20T16:46:22.090Z,9.50
2024-02-20T16:48:48.815Z,9.50
2024-02-20T16:51:15.951Z,9.50
2024-02-20T16:53:42.675Z,9.40
2024-02-20T16:56:09.771Z,9.40
2024-02-20T16:58:37.310Z,9.40
2024-02-20T17:01:04.339Z,9.40
2024-02-20T17:03:31.137Z,9.40
2024-02-20T17:05:58.539Z,9.40
2024-02-20T17:08:28.392Z,9.40
2024-02-20T17:10:55.094Z,9.50
2024-02-20T17:13:22.355Z,9.50
2024-02-20T17:15:49.034Z,9.50
2024-02-20T17:18:15.850Z,9.50
2024-02-20T17:20:43.512Z,9.50
2024-02-20T17:23:10.692Z,9.50
2024-02-20T17:25:37.529Z,9.50
2024-02-20T17:28:05.832Z,9.40
2024-02-20T17:30:32.589Z,9.40
2024-02-20T17:32:59.391Z,9.40
2024-02-20T17:35:26.263Z,9.50
2024-02-20T17:37:53.169Z,9.50
2024-02-20T17:40:21.901Z,9.50
2024-02-20T17:42:49.585Z,9.50
2024-02-20T17:45:20.149Z,9.50
2024-02-20T17:47:48.095Z,9.50
2024-02-20T17:50:15.781Z,9.50
2024-02-20T17:52:42.585Z,9.50
2024-02-20T17:55:09.843Z,9.50
2024-02-20T17:57:36.586Z,9.50
2024-02-20T18:00:03.559Z,9.50
2024-02-20T18:02:31.999Z,9.50
2024-02-20T18:04:59.277Z,9.50
2024-02-20T18:07:26.200Z,9.50
2024-02-20T18:09:52.904Z,9.50
2024-02-20T18:12:20.030Z,9.50
2024-02-20T18:14:48.370Z,9.50
2024-02-20T18:17:14.997Z,9.50
2024-02-20T18:19:46.652Z,9.50
2024-02-20T18:22:13.527Z,9.50
2024-02-20T18:24:40.558Z,9.50
2024-02-20T18:27:08.071Z,9.50
2024-02-20T18:29:34.733Z,9.50
2024-02-20T18:32:01.457Z,9.50
2024-02-20T18:34:28.589Z,9.50
2024-02-20T18:36:55.332Z,9.50
2024-02-20T18:39:22.144Z,9.50
2024-02-20T18:41:49.245Z,9.50
2024-02-20T18:44:15.894Z,9.50
2024-02-20T18:46:45.751Z,9.50
2024-02-20T18:49:13.077Z,9.50
2024-02-20T18:51:39.834Z,9.50
2024-02-20T18:54:06.531Z,9.50
2024-02-20T18:56:33.279Z,9.50
2024-02-20T18:59:05.191Z,9.50
2024-02-20T19:01:33.640Z,9.40
2024-02-20T19:04:00.612Z,9.50
2024-02-20T19:06:27.616Z,9.50
2024-02-20T19:08:55.060Z,9.50
2024-02-20T19:11:21.821Z,9.50
2024-02-20T19:13:48.789Z,9.50
2024-02-20T19:16:16.480Z,9.50
2024-02-20T19:18:43.167Z,9.50
2024-02-20T19:21:18.470Z,9.50
2024-02-20T19:23:45.115Z,9.50
2024-02-20T19:26:11.727Z,9.40
2024-02-20T19:28:42.427Z,9.40
2024-02-20T19:31:09.770Z,9.40
2024-02-20T19:33:36.649Z,9.40
2024-02-20T19:36:03.977Z,9.40
2024-02-20T19:38:33.022Z,9.40
2024-02-20T19:40:59.776Z,9.40
2024-02-20T19:43:26.965Z,9.40
2024-02-20T19:45:53.593Z,9.40
2024-02-20T19:48:20.351Z,9.40
2024-02-20T19:50:47.413Z,9.40
2024-02-20T19:53:16.533Z,9.50
2024-02-20T19:55:43.633Z,9.50
2024-02-20T19:58:13.541Z,9.50
2024-02-20T20:00:41.132Z,9.50
2024-02-20T20:03:08.155Z,9.40
2024-02-20T20:05:35.461Z,9.40
2024-02-20T20:08:02.267Z,9.40
2024-02-20T20:10:29.315Z,9.40
2024-02-20T20:12:56.510Z,9.40
2024-02-20T20:15:23.517Z,9.40
2024-02-20T20:17:50.297Z,9.40
2024-02-20T20:20:17.506Z,9.40
2024-02-20T20:22:44.181Z,9.40
2024-02-20T20:25:11.379Z,9.40
2024-02-20T20:27:38.533Z,9.30
2024-02-20T20:30:06.461Z,9.30
2024-02-20T20:32:33.089Z,9.30
2024-02-20T20:35:00.107Z,9.20
2024-02-20T20:37:26.827Z,9.20
2024-02-20T20:39:57.708Z,9.10
2024-02-20T20:42:24.497Z,9.10
2024-02-20T20:44:53.141Z,9.10
2024-02-20T20:47:19.891Z,9.10
2024-02-20T20:49:47.548Z,9.10
2024-02-20T20:52:14.244Z,9.10
2024-02-20T20:54:40.930Z,9.10
2024-02-20T20:57:10.964Z,9.10
2024-02-20T20:59:38.038Z,9.10
2024-02-20T21:02:06.113Z,9.00
2024-02-20T21:04:32.989Z,9.00
2024-02-20T21:06:59.802Z,9.00
2024-02-20T21:09:26.459Z,9.00
2024-02-20T21:11:53.669Z,9.00
2024-02-20T21:14:20.382Z,8.90
2024-02-20T21:16:47.126Z,8.90
2024-02-20T21:19:14.439Z,9.00
2024-02-20T21:21:42.002Z,8.90
2024-02-20T21:24:11.277Z,8.90
2024-02-20T21:26:41.652Z,8.90
2024-02-20T21:29:13.156Z,8.90
2024-02-20T21:31:40.403Z,9.00
2024-02-20T21:34:09.032Z,9.00
2024-02-20T21:36:38.849Z,8.90
2024-02-20T21:39:05.758Z,8.90
2024-02-20T21:41:32.766Z,8.90
2024-02-20T21:43:59.805Z,8.90
2024-02-20T21:46:26.634Z,8.90
2024-02-20T21:48:53.812Z,8.90
2024-02-20T21:51:20.781Z,8.90
2024-02-20T21:53:48.140Z,9.00
2024-02-20T21:56:16.713Z,9.00
2024-02-20T21:58:44.922Z,9.00
2024-02-20T22:01:12.413Z,9.00
2024-02-20T22:03:39.849Z,9.00
2024-02-20T22:06:06.710Z,9.00
2024-02-20T22:08:33.812Z,8.90
2024-02-20T22:11:00.892Z,8.80
2024-02-20T22:13:28.243Z,8.70
2024-02-20T22:15:57.670Z,8.80
2024-02-20T22:18:28.121Z,8.80
2024-02-20T22:20:56.684Z,8.90
2024-02-20T22:23:23.491Z,8.80
2024-02-20T22:25:50.163Z,8.80
2024-02-20T22:28:17.400Z,8.90
2024-02-20T22:30:44.075Z,8.90
2024-02-20T22:33:10.875Z,8.80
2024-02-20T22:35:38.341Z,8.70
2024-02-20T22:38:06.451Z,8.70
2024-02-20T22:40:33.668Z,8.70
2024-02-20T22:43:00.367Z,8.80
2024-02-20T22:45:27.082Z,8.90
2024-02-20T22:47:54.472Z,8.80
2024-02-20T22:50:21.285Z,8.80
2024-02-20T22:52:48.086Z,8.80
2024-02-20T22:55:15.245Z,8.70
2024-02-20T22:57:41.936Z,8.70
2024-02-20T23:00:12.976Z,8.60
2024-02-20T23:02:40.200Z,8.60
2024-02-20T23:05:07.482Z,8.60
2024-02-20T23:07:34.278Z,8.60
2024-02-20T23:10:01.415Z,8.50
2024-02-20T23:12:28.141Z,8.50
2024-02-20T23:14:55.261Z,8.60
2024-02-20T23:17:22.387Z,8.70
2024-02-20T23:19:49.119Z,8.70
2024-02-20T23:22:16.016Z,8.70
2024-02-20T23:24:42.928Z,8.70
2024-02-20T23:27:09.768Z,8.70
2024-02-20T23:29:36.414Z,8.70
2024-02-20T23:32:03.651Z,8.70
2024-02-20T23:34:30.499Z,8.70
2024-02-20T23:36:57.219Z,8.60
2024-02-20T23:39:25.497Z,8.60
2024-02-20T23:41:53.217Z,8.70
2024-02-20T23:44:19.931Z,8.70
2024-02-20T23:46:47.183Z,8.70
2024-02-20T23:49:13.996Z,8.70
2024-02-20T23:51:40.753Z,8.70
2024-02-20T23:54:07.910Z,8.70
2024-02-20T23:56:34.580Z,8.70
2024-02-20T23:59:01.327Z,8.70
